Geraldton Greenstone Regional Airport
CYGQ : rendu visible

Aérodrome :











RETROUVEZ-NOUS SUR...

 
LOGIN :

S'inscrire | Disclaimer

   EN    FR    IT 

 









Légende :    VFR   VFR Marginal   IFR   IFR Intensif   IFR Très Intensif
Visi : 
Plafond : 
>= 8 km
>= 3000ft
5 à 8 km
1000 à 3000 ft
1500m à 5 km
500 à 1000 ft
800 à 1500m
200 à 500 ft
< 800m
< 200 ft
Symboles :   Orages  Brouillard  Fortes neiges  Fortes précipitations  Vent > 20 kt






- Altitude de l'aérodrome : 1144 ft
- Code IATA : YGQ


CYGQ - Geraldton Greenstone Regional

DERNIER METAR :
  • 280600Z 35006KT 10SM -FZDZ -SN OVC008 M09/M11 A3000 RMK ST8 SLP187

METARs EXPIRÉS :
  • 280500Z 01005KT 12SM -FZDZ -SN OVC008 M08/M10 A3000 RMK ST8 SLP187
  • 280446Z 02005KT 320V030 12SM -FZDZ -SN OVC009 M08/M10 A2999 RMK ST8 SLP187
  • 280400Z 02008KT 15SM -SN OVC009 M08/M10 A2999 RMK ST8 SLP183

TAF AMD TAF CYGQ
Valide du 28 à 05h jusqu'au 28 à 14h UTC


280505Z 2805/2814 01005KT P6SM OVC008
TEMPO 2805/2808 5SM -FZDZ -SN BR OVC006
FM280800 36005KT 5SM -SN OVC007
TEMPO 2808/2814 P6SM NSW OVC010 RMK NXT FCST BY 280800Z



MET'MAP, la Météo Aéronautique d'un coup d'oeil ! - Copyright ORBIFLY Décembre 2007 - Disclaimer

ORBIFLY MET'MAP TEAM :

Programmation & Développement : Alexandra Zaïnal
Sur une idée originale de : Baudouin d'Aumeries
Assistance à la programmation : Marc-Olivier Méhu
Soutien technique & logistique : Manuel Goepfert

Contact : metmap@orbifly.com




SOURCES & CREDITS :

   NOAA       Earth
Advisory